Language: 


Des rapports , des résumés tant et plus, au choix de chacun....


Données Historiques de Météogheer
Journalier Rapport pour Janvier 24, 2017 Unitée:  Les deux    Impériale   Métrique
Suivant Jour »
Journalier Hebdomadaire Mensuel Annuel Sur mesure
  Max: Min: Moyenne:
Température: 39 °F /  3.9 °C 31.5 °F /  -0.3 °C 34.2 °F /  1.2 °C
Point de rosée: 38.5 °F /  3.6 °C 30.9 °F /  -0.6 °C 33.8 °F /  1 °C
Humidité: 98% 0% 98%
Vent: 4.9mph /  7.9km/h - 0.9mph /  1.4km/h
Rafales: 19.7mph /  31.7km/h - -
Vent- - SSW
Pression: 30.4 in /  1029.0 hPa 30.3 in /  1024.9 hPa -
Pluie: 0 in /  0.0 mm    
Historical Graphs
 
 
Données tabulaires pour Janvier 24, 2017
Heure Température Point de rosée Pression Vent Vent Rafales Humidité Pluie Taux (Horaire) Conditions
00:01 31.5 °F /  -0.3 °C 30.9 °F /  -0.6 °C 30.3in /  1027.0hPa SSW 4.5mph /  7.2km/h 5.6mph /  9.0km/h 98% 0in /  0.0mm
00:06 31.5 °F /  -0.3 °C 30.9 °F /  -0.6 °C 30.3in /  1027.0hPa SW 4mph /  6.4km/h 4.9mph /  7.9km/h 98% 0in /  0.0mm
00:11 31.5 °F /  -0.3 °C 30.9 °F /  -0.6 °C 30.3in /  1027.0hPa WSW 3.6mph /  5.8km/h 4.3mph /  6.9km/h 98% 0in /  0.0mm
00:16 31.5 °F /  -0.3 °C 30.9 °F /  -0.6 °C 30.3in /  1027.0hPa SSW 3.6mph /  5.8km/h 5.8mph /  9.3km/h 98% 0in /  0.0mm
00:21 31.5 °F /  -0.3 °C 30.9 °F /  -0.6 °C 30.3in /  1027.0hPa SW 4mph /  6.4km/h 6mph /  9.7km/h 98% 0in /  0.0mm
00:26 31.6 °F /  -0.2 °C 31.1 °F /  -0.5 °C 30.3in /  1026.0hPa WSW 4.3mph /  6.9km/h 6mph /  9.7km/h 98% 0in /  0.0mm
00:31 31.6 °F /  -0.2 °C 31.1 °F /  -0.5 °C 30.3in /  1026.0hPa WSW 2.2mph /  3.5km/h 5.4mph /  8.7km/h 98% 0in /  0.0mm
00:36 31.6 °F /  -0.2 °C 31.1 °F /  -0.5 °C 30.3in /  1026.0hPa Calm   4.3mph /  6.9km/h 98% 0in /  0.0mm
00:41 31.6 °F /  -0.2 °C 31.1 °F /  -0.5 °C 30.3in /  1027.0hPa WSW 3.1mph /  5.0km/h 3.4mph /  5.5km/h 98% 0in /  0.0mm
00:46 31.6 °F /  -0.2 °C 31.1 °F /  -0.5 °C 30.3in /  1027.0hPa WSW 2.9mph /  4.7km/h 3.4mph /  5.5km/h 98% 0in /  0.0mm
00:51 31.6 °F /  -0.2 °C 31.1 °F /  -0.5 °C 30.3in /  1027.0hPa Calm   4mph /  6.4km/h 98% 0in /  0.0mm
00:56 31.8 °F /  -0.1 °C 31.3 °F /  -0.4 °C 30.3in /  1026.0hPa Calm   4mph /  6.4km/h 98% 0in /  0.0mm
01:01 31.8 °F /  -0.1 °C 31.3 °F /  -0.4 °C 30.3in /  1026.0hPa Calm   0.9mph /  1.4km/h 98% 0in /  0.0mm
01:06 31.8 °F /  -0.1 °C 31.3 °F /  -0.4 °C 30.3in /  1026.0hPa Calm   0.9mph /  1.4km/h 98% 0in /  0.0mm
01:11 31.8 °F /  -0.1 °C 31.3 °F /  -0.4 °C 30.3in /  1026.0hPa Calm   3.6mph /  5.8km/h 98% 0in /  0.0mm
01:16 31.8 °F /  -0.1 °C 31.3 °F /  -0.4 °C 30.3in /  1026.0hPa West 3.8mph /  6.1km/h 4.5mph /  7.2km/h 98% 0in /  0.0mm
01:21 31.8 °F /  -0.1 °C 31.3 °F /  -0.4 °C 30.3in /  1026.0hPa WSW 4.3mph /  6.9km/h 5.4mph /  8.7km/h 98% 0in /  0.0mm
01:26 32 °F /  0.0 °C 31.5 °F /  -0.3 °C 30.3in /  1027.0hPa WSW 3.1mph /  5.0km/h 5.4mph /  8.7km/h 98% 0in /  0.0mm
01:31 32 °F /  0.0 °C 31.5 °F /  -0.3 °C 30.3in /  1027.0hPa WSW 3.4mph /  5.5km/h 4.7mph /  7.6km/h 98% 0in /  0.0mm
01:36 32 °F /  0.0 °C 31.5 °F /  -0.3 °C 30.3in /  1027.0hPa WSW 3.8mph /  6.1km/h 4.3mph /  6.9km/h 98% 0in /  0.0mm
01:41 32 °F /  0.0 °C 31.5 °F /  -0.3 °C 30.3in /  1026.0hPa SW 3.1mph /  5.0km/h 4.3mph /  6.9km/h 98% 0in /  0.0mm
01:46 32 °F /  0.0 °C 31.5 °F /  -0.3 °C 30.3in /  1026.0hPa Calm   3.8mph /  6.1km/h 98% 0in /  0.0mm
01:51 32 °F /  0.0 °C 31.5 °F /  -0.3 °C 30.3in /  1026.0hPa SW 2.9mph /  4.7km/h 3.8mph /  6.1km/h 98% 0in /  0.0mm
01:56 32 °F /  0.0 °C 31.5 °F /  -0.3 °C 30.3in /  1026.0hPa Calm   3.8mph /  6.1km/h 98% 0in /  0.0mm
02:02 32 °F /  0.0 °C 31.5 °F /  -0.3 °C 30.3in /  1026.0hPa Calm   2.7mph /  4.3km/h 0% 0in /  0.0mm
02:07 32.2 °F /  0.1 °C 31.6 °F /  -0.2 °C 30.3in /  1026.0hPa Calm     98% 0in /  0.0mm
02:12 32.2 °F /  0.1 °C 31.6 °F /  -0.2 °C 30.3in /  1026.0hPa Calm   2.9mph /  4.7km/h 98% 0in /  0.0mm
02:17 32.2 °F /  0.1 °C 31.6 °F /  -0.2 °C 30.3in /  1026.0hPa WSW 3.4mph /  5.5km/h 3.4mph /  5.5km/h 98% 0in /  0.0mm
02:22 32.2 °F /  0.1 °C 31.6 °F /  -0.2 °C 30.3in /  1026.0hPa Calm   3.4mph /  5.5km/h 98% 0in /  0.0mm
02:27 32.2 °F /  0.1 °C 31.6 °F /  -0.2 °C 30.3in /  1026.0hPa Calm   3.4mph /  5.5km/h 98% 0in /  0.0mm
02:32 32.2 °F /  0.1 °C 31.6 °F /  -0.2 °C 30.3in /  1026.0hPa WSW 4.3mph /  6.9km/h 4.5mph /  7.2km/h 98% 0in /  0.0mm
02:37 32.4 °F /  0.2 °C 31.8 °F /  -0.1 °C 30.3in /  1026.0hPa West 3.1mph /  5.0km/h 4.5mph /  7.2km/h 98% 0in /  0.0mm
02:42 32.4 °F /  0.2 °C 31.8 °F /  -0.1 °C 30.3in /  1026.0hPa West 3.6mph /  5.8km/h 6mph /  9.7km/h 98% 0in /  0.0mm
02:47 32.4 °F /  0.2 °C 31.8 °F /  -0.1 °C 30.3in /  1026.0hPa West 4.3mph /  6.9km/h 6mph /  9.7km/h 98% 0in /  0.0mm
02:52 32.4 °F /  0.2 °C 31.8 °F /  -0.1 °C 30.3in /  1026.0hPa WSW 4mph /  6.4km/h 5.8mph /  9.3km/h 98% 0in /  0.0mm
02:57 32.4 °F /  0.2 °C 31.8 °F /  -0.1 °C 30.3in /  1026.0hPa WSW 4mph /  6.4km/h 5.8mph /  9.3km/h 98% 0in /  0.0mm
03:02 32.4 °F /  0.2 °C 31.8 °F /  -0.1 °C 30.3in /  1026.0hPa Calm   5.4mph /  8.7km/h 98% 0in /  0.0mm
03:07 32.4 °F /  0.2 °C 31.8 °F /  -0.1 °C 30.3in /  1026.0hPa Calm   3.4mph /  5.5km/h 98% 0in /  0.0mm
03:12 32.4 °F /  0.2 °C 31.8 °F /  -0.1 °C 30.3in /  1026.0hPa Calm   3.8mph /  6.1km/h 98% 0in /  0.0mm
03:17 32.4 °F /  0.2 °C 31.8 °F /  -0.1 °C 30.3in /  1026.0hPa Calm   3.8mph /  6.1km/h 98% 0in /  0.0mm
03:22 32.4 °F /  0.2 °C 31.8 °F /  -0.1 °C 30.3in /  1026.0hPa Calm   3.8mph /  6.1km/h 98% 0in /  0.0mm
03:27 32.4 °F /  0.2 °C 31.8 °F /  -0.1 °C 30.3in /  1026.0hPa West 0.9mph /  1.4km/h 3.6mph /  5.8km/h 98% 0in /  0.0mm
03:32 32.4 °F /  0.2 °C 31.8 °F /  -0.1 °C 30.3in /  1026.0hPa Calm   3.4mph /  5.5km/h 98% 0in /  0.0mm
03:37 32.4 °F /  0.2 °C 31.8 °F /  -0.1 °C 30.3in /  1026.0hPa Calm   3.1mph /  5.0km/h 98% 0in /  0.0mm
03:42 32.4 °F /  0.2 °C 31.8 °F /  -0.1 °C 30.3in /  1026.0hPa Calm   2.9mph /  4.7km/h 98% 0in /  0.0mm
03:47 32.4 °F /  0.2 °C 31.8 °F /  -0.1 °C 30.3in /  1026.0hPa Calm   1.1mph /  1.8km/h 98% 0in /  0.0mm
03:52 32.5 °F /  0.3 °C 32 °F /  0.0 °C 30.3in /  1026.0hPa Calm   2.7mph /  4.3km/h 98% 0in /  0.0mm
03:57 32.5 °F /  0.3 °C 32 °F /  0.0 °C 30.3in /  1026.0hPa Calm   2.7mph /  4.3km/h 98% 0in /  0.0mm
04:02 32.5 °F /  0.3 °C 32 °F /  0.0 °C 30.3in /  1026.0hPa West 1.6mph /  2.6km/h 2.7mph /  4.3km/h 98% 0in /  0.0mm
04:07 32.5 °F /  0.3 °C 32 °F /  0.0 °C 30.3in /  1026.0hPa WSW 3.1mph /  5.0km/h 4.9mph /  7.9km/h 98% 0in /  0.0mm
04:12 32.7 °F /  0.4 °C 32.2 °F /  0.1 °C 30.3in /  1026.0hPa WSW 3.4mph /  5.5km/h 4.9mph /  7.9km/h 98% 0in /  0.0mm
04:17 32.7 °F /  0.4 °C 32.2 °F /  0.1 °C 30.3in /  1026.0hPa Calm   4.7mph /  7.6km/h 98% 0in /  0.0mm
04:22 32.7 °F /  0.4 °C 32.2 °F /  0.1 °C 30.3in /  1024.9hPa WSW 2.5mph /  4.0km/h 4.7mph /  7.6km/h 98% 0in /  0.0mm
04:27 32.7 °F /  0.4 °C 32.2 °F /  0.1 °C 30.3in /  1024.9hPa West 3.6mph /  5.8km/h 5.4mph /  8.7km/h 98% 0in /  0.0mm
04:32 32.7 °F /  0.4 °C 32.2 °F /  0.1 °C 30.3in /  1024.9hPa Calm   5.4mph /  8.7km/h 98% 0in /  0.0mm
04:37 32.7 °F /  0.4 °C 32.2 °F /  0.1 °C 30.3in /  1026.0hPa Calm   4.3mph /  6.9km/h 98% 0in /  0.0mm
04:42 32.7 °F /  0.4 °C 32.2 °F /  0.1 °C 30.3in /  1026.0hPa Calm   19.7mph /  31.7km/h 98% 0in /  0.0mm
04:47 32.7 °F /  0.4 °C 32.2 °F /  0.1 °C 30.3in /  1026.0hPa Calm   19.7mph /  31.7km/h 98% 0in /  0.0mm
04:52 32.7 °F /  0.4 °C 32.2 °F /  0.1 °C 30.3in /  1026.0hPa West 3.4mph /  5.5km/h 4.5mph /  7.2km/h 98% 0in /  0.0mm
04:57 32.7 °F /  0.4 °C 32.2 °F /  0.1 °C 30.3in /  1026.0hPa WSW 2.7mph /  4.3km/h 4.5mph /  7.2km/h 98% 0in /  0.0mm
05:02 32.7 °F /  0.4 °C 32.2 °F /  0.1 °C 30.3in /  1026.0hPa West 4.3mph /  6.9km/h 4.9mph /  7.9km/h 98% 0in /  0.0mm
05:07 32.7 °F /  0.4 °C 32.2 °F /  0.1 °C 30.3in /  1026.0hPa WSW 3.1mph /  5.0km/h 4.9mph /  7.9km/h 98% 0in /  0.0mm
05:12 32.7 °F /  0.4 °C 32.2 °F /  0.1 °C 30.3in /  1026.0hPa West 3.1mph /  5.0km/h 5.6mph /  9.0km/h 98% 0in /  0.0mm
05:17 32.5 °F /  0.3 °C 32 °F /  0.0 °C 30.3in /  1026.0hPa WSW 4mph /  6.4km/h 5.6mph /  9.0km/h 98% 0in /  0.0mm
05:22 32.5 °F /  0.3 °C 32 °F /  0.0 °C 30.3in /  1026.0hPa WSW 2.9mph /  4.7km/h 4.7mph /  7.6km/h 98% 0in /  0.0mm
05:27 32.5 °F /  0.3 °C 32 °F /  0.0 °C 30.3in /  1026.0hPa Calm   4.7mph /  7.6km/h 98% 0in /  0.0mm
05:32 32.5 °F /  0.3 °C 32 °F /  0.0 °C 30.3in /  1026.0hPa Calm   3.1mph /  5.0km/h 98% 0in /  0.0mm
05:37 32.5 °F /  0.3 °C 32 °F /  0.0 °C 30.3in /  1024.9hPa Calm   1.6mph /  2.6km/h 98% 0in /  0.0mm
05:42 32.7 °F /  0.4 °C 32.2 °F /  0.1 °C 30.3in /  1024.9hPa Calm   1.6mph /  2.6km/h 98% 0in /  0.0mm
05:47 32.7 °F /  0.4 °C 32.2 °F /  0.1 °C 30.3in /  1024.9hPa Calm     98% 0in /  0.0mm
05:52 32.7 °F /  0.4 °C 32.2 °F /  0.1 °C 30.3in /  1026.0hPa Calm     98% 0in /  0.0mm
05:57 32.7 °F /  0.4 °C 32.2 °F /  0.1 °C 30.3in /  1026.0hPa Calm   1.1mph /  1.8km/h 98% 0in /  0.0mm
06:02 32.7 °F /  0.4 °C 32.2 °F /  0.1 °C 30.3in /  1026.0hPa Calm   1.1mph /  1.8km/h 98% 0in /  0.0mm
06:07 32.7 °F /  0.4 °C 32.2 °F /  0.1 °C 30.3in /  1026.0hPa Calm     98% 0in /  0.0mm
06:12 32.7 °F /  0.4 °C 32.2 °F /  0.1 °C 30.3in /  1026.0hPa Calm     98% 0in /  0.0mm
06:17 32.9 °F /  0.5 °C 32.4 °F /  0.2 °C 30.3in /  1026.0hPa Calm     98% 0in /  0.0mm
06:22 32.9 °F /  0.5 °C 32.4 °F /  0.2 °C 30.3in /  1026.0hPa Calm     98% 0in /  0.0mm
06:27 32.9 °F /  0.5 °C 32.4 °F /  0.2 °C 30.3in /  1026.0hPa Calm   0.9mph /  1.4km/h 98% 0in /  0.0mm
06:32 32.9 °F /  0.5 °C 32.4 °F /  0.2 °C 30.3in /  1026.0hPa Calm   0.9mph /  1.4km/h 98% 0in /  0.0mm
06:37 33.1 °F /  0.6 °C 32.5 °F /  0.3 °C 30.3in /  1026.0hPa Calm     98% 0in /  0.0mm
06:42 33.1 °F /  0.6 °C 32.5 °F /  0.3 °C 30.3in /  1026.0hPa Calm     98% 0in /  0.0mm
06:47 33.1 °F /  0.6 °C 32.5 °F /  0.3 °C 30.3in /  1026.0hPa Calm     98% 0in /  0.0mm
06:52 33.1 °F /  0.6 °C 32.5 °F /  0.3 °C 30.3in /  1026.0hPa SW 2.5mph /  4.0km/h 3.1mph /  5.0km/h 98% 0in /  0.0mm
06:57 33.1 °F /  0.6 °C 32.5 °F /  0.3 °C 30.3in /  1026.0hPa SSW 2.9mph /  4.7km/h 3.1mph /  5.0km/h 98% 0in /  0.0mm
07:02 33.1 °F /  0.6 °C 32.5 °F /  0.3 °C 30.3in /  1026.0hPa Calm   2.9mph /  4.7km/h 98% 0in /  0.0mm
07:07 33.1 °F /  0.6 °C 32.5 °F /  0.3 °C 30.3in /  1026.0hPa Calm   2.9mph /  4.7km/h 98% 0in /  0.0mm
07:12 33.3 °F /  0.7 °C 32.7 °F /  0.4 °C 30.3in /  1026.0hPa Calm   1.1mph /  1.8km/h 98% 0in /  0.0mm
07:17 33.3 °F /  0.7 °C 32.7 °F /  0.4 °C 30.3in /  1026.0hPa Calm   1.1mph /  1.8km/h 98% 0in /  0.0mm
07:22 33.3 °F /  0.7 °C 32.7 °F /  0.4 °C 30.3in /  1026.0hPa Calm   0.9mph /  1.4km/h 98% 0in /  0.0mm
07:27 33.3 °F /  0.7 °C 32.7 °F /  0.4 °C 30.3in /  1026.0hPa Calm   1.1mph /  1.8km/h 98% 0in /  0.0mm
07:32 33.3 °F /  0.7 °C 32.7 °F /  0.4 °C 30.3in /  1026.0hPa Calm   1.1mph /  1.8km/h 98% 0in /  0.0mm
07:37 33.3 °F /  0.7 °C 32.7 °F /  0.4 °C 30.3in /  1026.0hPa Calm   1.1mph /  1.8km/h 98% 0in /  0.0mm
07:42 33.3 °F /  0.7 °C 32.7 °F /  0.4 °C 30.3in /  1026.0hPa Calm   1.1mph /  1.8km/h 98% 0in /  0.0mm
07:47 33.3 °F /  0.7 °C 32.7 °F /  0.4 °C 30.3in /  1026.0hPa Calm   2mph /  3.2km/h 98% 0in /  0.0mm
07:52 33.3 °F /  0.7 °C 32.7 °F /  0.4 °C 30.3in /  1026.0hPa Calm   2mph /  3.2km/h 98% 0in /  0.0mm
07:57 33.3 °F /  0.7 °C 32.7 °F /  0.4 °C 30.3in /  1026.0hPa Calm     98% 0in /  0.0mm
08:02 33.3 °F /  0.7 °C 32.7 °F /  0.4 °C 30.3in /  1026.0hPa Calm     98% 0in /  0.0mm
08:07 33.3 °F /  0.7 °C 32.7 °F /  0.4 °C 30.3in /  1027.0hPa Calm     98% 0in /  0.0mm
08:12 33.3 °F /  0.7 °C 32.7 °F /  0.4 °C 30.3in /  1027.0hPa Calm     98% 0in /  0.0mm
08:17 33.3 °F /  0.7 °C 32.7 °F /  0.4 °C 30.3in /  1027.0hPa Calm     98% 0in /  0.0mm
08:22 33.3 °F /  0.7 °C 32.7 °F /  0.4 °C 30.3in /  1027.0hPa Calm     98% 0in /  0.0mm
08:27 33.3 °F /  0.7 °C 32.7 °F /  0.4 °C 30.3in /  1027.0hPa Calm     98% 0in /  0.0mm
08:32 33.3 °F /  0.7 °C 32.7 °F /  0.4 °C 30.3in /  1027.0hPa Calm     98% 0in /  0.0mm
08:37 33.4 °F /  0.8 °C 32.9 °F /  0.5 °C 30.3in /  1027.0hPa Calm     98% 0in /  0.0mm
08:42 33.4 °F /  0.8 °C 32.9 °F /  0.5 °C 30.3in /  1027.0hPa Calm     98% 0in /  0.0mm
08:47 33.4 °F /  0.8 °C 32.9 °F /  0.5 °C 30.3in /  1027.0hPa Calm     98% 0in /  0.0mm
08:52 33.4 °F /  0.8 °C 32.9 °F /  0.5 °C 30.3in /  1027.0hPa Calm     98% 0in /  0.0mm
08:57 33.6 °F /  0.9 °C 33.1 °F /  0.6 °C 30.3in /  1027.0hPa Calm     98% 0in /  0.0mm
09:02 33.6 °F /  0.9 °C 33.1 °F /  0.6 °C 30.3in /  1027.0hPa Calm     98% 0in /  0.0mm
09:07 33.6 °F /  0.9 °C 33.1 °F /  0.6 °C 30.3in /  1027.0hPa Calm     98% 0in /  0.0mm
09:12 33.6 °F /  0.9 °C 33.1 °F /  0.6 °C 30.3in /  1027.0hPa Calm     98% 0in /  0.0mm
09:17 33.6 °F /  0.9 °C 33.1 °F /  0.6 °C 30.3in /  1027.0hPa Calm     98% 0in /  0.0mm
09:22 33.6 °F /  0.9 °C 33.1 °F /  0.6 °C 30.3in /  1027.0hPa Calm     98% 0in /  0.0mm
09:27 33.6 °F /  0.9 °C 33.1 °F /  0.6 °C 30.3in /  1027.0hPa Calm     98% 0in /  0.0mm
09:32 33.8 °F /  1.0 °C 33.3 °F /  0.7 °C 30.3in /  1027.0hPa Calm     98% 0in /  0.0mm
09:37 33.8 °F /  1.0 °C 33.3 °F /  0.7 °C 30.3in /  1026.0hPa Calm     98% 0in /  0.0mm
09:42 33.8 °F /  1.0 °C 33.3 °F /  0.7 °C 30.3in /  1026.0hPa Calm     98% 0in /  0.0mm
09:47 34 °F /  1.1 °C 33.4 °F /  0.8 °C 30.3in /  1026.0hPa Calm     98% 0in /  0.0mm
09:52 34 °F /  1.1 °C 33.4 °F /  0.8 °C 30.3in /  1026.0hPa Calm     98% 0in /  0.0mm
09:57 34 °F /  1.1 °C 33.4 °F /  0.8 °C 30.3in /  1026.0hPa Calm     98% 0in /  0.0mm
10:02 34.2 °F /  1.2 °C 33.6 °F /  0.9 °C 30.3in /  1026.0hPa Calm     98% 0in /  0.0mm
10:07 34.2 °F /  1.2 °C 33.6 °F /  0.9 °C 30.3in /  1027.0hPa Calm     98% 0in /  0.0mm
10:12 34.3 °F /  1.3 °C 33.8 °F /  1.0 °C 30.3in /  1027.0hPa Calm     98% 0in /  0.0mm
10:17 34.3 °F /  1.3 °C 33.8 °F /  1.0 °C 30.3in /  1027.0hPa Calm     98% 0in /  0.0mm
10:22 34.5 °F /  1.4 °C 34 °F /  1.1 °C 30.3in /  1027.0hPa Calm     98% 0in /  0.0mm
10:27 34.9 °F /  1.6 °C 34.3 °F /  1.3 °C 30.3in /  1027.0hPa Calm     98% 0in /  0.0mm
10:32 35.1 °F /  1.7 °C 34.5 °F /  1.4 °C 30.3in /  1027.0hPa Calm     98% 0in /  0.0mm
10:37 35.4 °F /  1.9 °C 35.1 °F /  1.7 °C 30.4in /  1028.0hPa Calm     98% 0in /  0.0mm
10:42 35.8 °F /  2.1 °C 35.2 °F /  1.8 °C 30.4in /  1028.0hPa Calm     98% 0in /  0.0mm
10:47 36.1 °F /  2.3 °C 35.8 °F /  2.1 °C 30.4in /  1028.0hPa Calm     98% 0in /  0.0mm
10:52 36.3 °F /  2.4 °C 36 °F /  2.2 °C 30.3in /  1027.0hPa Calm     98% 0in /  0.0mm
10:57 36.7 °F /  2.6 °C 36.1 °F /  2.3 °C 30.3in /  1027.0hPa Calm     98% 0in /  0.0mm
11:02 36.7 °F /  2.6 °C 36.1 °F /  2.3 °C 30.3in /  1027.0hPa Calm   2.7mph /  4.3km/h 98% 0in /  0.0mm
11:07 36.9 °F /  2.7 °C 36.3 °F /  2.4 °C 30.4in /  1028.0hPa Calm   2.7mph /  4.3km/h 98% 0in /  0.0mm
11:12 37 °F /  2.8 °C 36.7 °F /  2.6 °C 30.4in /  1028.0hPa Calm     98% 0in /  0.0mm
11:17 37 °F /  2.8 °C 36.7 °F /  2.6 °C 30.4in /  1028.0hPa Calm   1.3mph /  2.1km/h 98% 0in /  0.0mm
11:22 37.2 °F /  2.9 °C 36.9 °F /  2.7 °C 30.4in /  1028.0hPa Calm   1.3mph /  2.1km/h 98% 0in /  0.0mm
11:27 37.2 °F /  2.9 °C 36.9 °F /  2.7 °C 30.4in /  1028.0hPa Calm     98% 0in /  0.0mm
11:32 37.6 °F /  3.1 °C 37 °F /  2.8 °C 30.4in /  1028.0hPa Calm     98% 0in /  0.0mm
11:37 37.6 °F /  3.1 °C 37 °F /  2.8 °C 30.4in /  1028.0hPa Calm     98% 0in /  0.0mm
11:42 37.6 °F /  3.1 °C 37 °F /  2.8 °C 30.4in /  1028.0hPa Calm   0.9mph /  1.4km/h 98% 0in /  0.0mm
11:47 37.6 °F /  3.1 °C 37 °F /  2.8 °C 30.4in /  1028.0hPa Calm   1.3mph /  2.1km/h 98% 0in /  0.0mm
11:52 37.6 °F /  3.1 °C 37 °F /  2.8 °C 30.4in /  1028.0hPa Calm   1.3mph /  2.1km/h 98% 0in /  0.0mm
11:57 37.6 °F /  3.1 °C 37 °F /  2.8 °C 30.4in /  1028.0hPa Calm   1.1mph /  1.8km/h 98% 0in /  0.0mm
12:02 37.8 °F /  3.2 °C 37.2 °F /  2.9 °C 30.4in /  1028.0hPa Calm     98% 0in /  0.0mm
12:07 37.9 °F /  3.3 °C 37.6 °F /  3.1 °C 30.4in /  1028.0hPa Calm     98% 0in /  0.0mm
12:13 37.8 °F /  3.2 °C 37.2 °F /  2.9 °C 30.4in /  1028.0hPa Calm     98% 0in /  0.0mm
12:18 37.8 °F /  3.2 °C 37.2 °F /  2.9 °C 30.4in /  1028.0hPa Calm     98% 0in /  0.0mm
12:23 37.9 °F /  3.3 °C 37.6 °F /  3.1 °C 30.4in /  1028.0hPa Calm     98% 0in /  0.0mm
12:28 37.9 °F /  3.3 °C 37.6 °F /  3.1 °C 30.4in /  1028.0hPa Calm     98% 0in /  0.0mm
12:33 38.1 °F /  3.4 °C 37.8 °F /  3.2 °C 30.4in /  1028.0hPa Calm     98% 0in /  0.0mm
12:38 38.1 °F /  3.4 °C 37.8 °F /  3.2 °C 30.4in /  1028.0hPa Calm     98% 0in /  0.0mm
12:43 38.1 °F /  3.4 °C 37.8 °F /  3.2 °C 30.4in /  1028.0hPa Calm     98% 0in /  0.0mm
12:48 38.1 °F /  3.4 °C 37.8 °F /  3.2 °C 30.4in /  1028.0hPa Calm     98% 0in /  0.0mm
12:53 38.5 °F /  3.6 °C 37.8 °F /  3.2 °C 30.4in /  1028.0hPa Calm   1.1mph /  1.8km/h 98% 0in /  0.0mm
12:58 38.5 °F /  3.6 °C 37.9 °F /  3.3 °C 30.4in /  1028.0hPa Calm   1.1mph /  1.8km/h 98% 0in /  0.0mm
13:03 38.5 °F /  3.6 °C 37.9 °F /  3.3 °C 30.4in /  1028.0hPa Calm     98% 0in /  0.0mm
13:08 38.5 °F /  3.6 °C 37.9 °F /  3.3 °C 30.4in /  1028.0hPa Calm     98% 0in /  0.0mm
13:13 38.7 °F /  3.7 °C 38.1 °F /  3.4 °C 30.4in /  1028.0hPa SW 0.9mph /  1.4km/h 0.9mph /  1.4km/h 98% 0in /  0.0mm
13:18 38.8 °F /  3.8 °C 38.5 °F /  3.6 °C 30.4in /  1028.0hPa Calm   1.3mph /  2.1km/h 98% 0in /  0.0mm
13:23 39 °F /  3.9 °C 38.5 °F /  3.6 °C 30.4in /  1028.0hPa Calm   1.3mph /  2.1km/h 98% 0in /  0.0mm
13:28 39 °F /  3.9 °C 38.5 °F /  3.6 °C 30.4in /  1028.0hPa Calm     98% 0in /  0.0mm
13:33 39 °F /  3.9 °C 38.5 °F /  3.6 °C 30.4in /  1028.0hPa Calm     98% 0in /  0.0mm
13:38 39 °F /  3.9 °C 38.5 °F /  3.6 °C 30.3in /  1027.0hPa SSW 2.2mph /  3.5km/h 2.5mph /  4.0km/h 98% 0in /  0.0mm
13:43 39 °F /  3.9 °C 38.5 °F /  3.6 °C 30.3in /  1027.0hPa Calm   2.5mph /  4.0km/h 98% 0in /  0.0mm
13:48 39 °F /  3.9 °C 38.5 °F /  3.6 °C 30.3in /  1027.0hPa Calm   2.5mph /  4.0km/h 98% 0in /  0.0mm
13:53 39 °F /  3.9 °C 38.5 °F /  3.6 °C 30.3in /  1027.0hPa Calm   2.5mph /  4.0km/h 98% 0in /  0.0mm
13:58 38.8 °F /  3.8 °C 38.5 °F /  3.6 °C 30.3in /  1027.0hPa Calm   1.1mph /  1.8km/h 98% 0in /  0.0mm
14:03 38.8 °F /  3.8 °C 38.5 °F /  3.6 °C 30.3in /  1027.0hPa Calm   1.1mph /  1.8km/h 98% 0in /  0.0mm
14:08 38.8 °F /  3.8 °C 38.5 °F /  3.6 °C 30.3in /  1027.0hPa Calm     98% 0in /  0.0mm
14:13 38.7 °F /  3.7 °C 38.1 °F /  3.4 °C 30.3in /  1027.0hPa Calm     98% 0in /  0.0mm
14:18 38.7 °F /  3.7 °C 38.1 °F /  3.4 °C 30.3in /  1027.0hPa Calm     98% 0in /  0.0mm
14:23 38.7 °F /  3.7 °C 38.1 °F /  3.4 °C 30.3in /  1027.0hPa Calm     98% 0in /  0.0mm
14:28 38.5 °F /  3.6 °C 37.9 °F /  3.3 °C 30.3in /  1027.0hPa Calm     98% 0in /  0.0mm
14:33 38.5 °F /  3.6 °C 37.8 °F /  3.2 °C 30.3in /  1027.0hPa Calm     98% 0in /  0.0mm
14:38 38.1 °F /  3.4 °C 37.8 °F /  3.2 °C 30.3in /  1027.0hPa Calm     98% 0in /  0.0mm
14:43 37.9 °F /  3.3 °C 37.6 °F /  3.1 °C 30.3in /  1027.0hPa Calm   2.5mph /  4.0km/h 98% 0in /  0.0mm
14:48 37.8 °F /  3.2 °C 37.2 °F /  2.9 °C 30.3in /  1027.0hPa Calm   2.5mph /  4.0km/h 98% 0in /  0.0mm
14:53 37.6 °F /  3.1 °C 37 °F /  2.8 °C 30.3in /  1027.0hPa Calm   4.3mph /  6.9km/h 98% 0in /  0.0mm
14:58 37.6 °F /  3.1 °C 37 °F /  2.8 °C 30.3in /  1027.0hPa Calm   4.3mph /  6.9km/h 98% 0in /  0.0mm
15:03 37.6 °F /  3.1 °C 37 °F /  2.8 °C 30.3in /  1027.0hPa SSE 1.3mph /  2.1km/h 2.5mph /  4.0km/h 98% 0in /  0.0mm
15:08 37.6 °F /  3.1 °C 37 °F /  2.8 °C 30.3in /  1027.0hPa South 0.9mph /  1.4km/h 2.5mph /  4.0km/h 98% 0in /  0.0mm
15:13 37.6 °F /  3.1 °C 37 °F /  2.8 °C 30.3in /  1027.0hPa Calm   2.9mph /  4.7km/h 98% 0in /  0.0mm
15:18 37.6 °F /  3.1 °C 37 °F /  2.8 °C 30.3in /  1027.0hPa Calm   3.1mph /  5.0km/h 98% 0in /  0.0mm
15:23 37.6 °F /  3.1 °C 37 °F /  2.8 °C 30.3in /  1027.0hPa Calm   3.1mph /  5.0km/h 98% 0in /  0.0mm
15:28 37.6 °F /  3.1 °C 37 °F /  2.8 °C 30.3in /  1027.0hPa Calm     98% 0in /  0.0mm
15:33 37.6 °F /  3.1 °C 37 °F /  2.8 °C 30.3in /  1027.0hPa Calm     98% 0in /  0.0mm
15:38 37.2 °F /  2.9 °C 36.9 °F /  2.7 °C 30.3in /  1027.0hPa SSW 2.9mph /  4.7km/h 3.1mph /  5.0km/h 98% 0in /  0.0mm
15:43 37 °F /  2.8 °C 36.7 °F /  2.6 °C 30.3in /  1027.0hPa Calm   3.1mph /  5.0km/h 98% 0in /  0.0mm
15:48 36.9 °F /  2.7 °C 36.3 °F /  2.4 °C 30.3in /  1027.0hPa Calm   3.1mph /  5.0km/h 98% 0in /  0.0mm
15:53 36.9 °F /  2.7 °C 36.3 °F /  2.4 °C 30.3in /  1027.0hPa Calm   2.9mph /  4.7km/h 98% 0in /  0.0mm
15:58 36.9 °F /  2.7 °C 36.3 °F /  2.4 °C 30.3in /  1027.0hPa Calm   2.9mph /  4.7km/h 98% 0in /  0.0mm
15:59 36.9 °F /  2.7 °C 36.3 °F /  2.4 °C 30.3in /  1027.0hPa Calm   2.9mph /  4.7km/h 98% 0in /  0.0mm
16:04 36.9 °F /  2.7 °C 36.3 °F /  2.4 °C 30.3in /  1027.0hPa Calm   2.7mph /  4.3km/h 98% 0in /  0.0mm
16:09 36.7 °F /  2.6 °C 36.1 °F /  2.3 °C 30.4in /  1028.0hPa Calm   1.3mph /  2.1km/h 98% 0in /  0.0mm
16:14 36.3 °F /  2.4 °C 36 °F /  2.2 °C 30.4in /  1028.0hPa Calm     98% 0in /  0.0mm
16:19 36.3 °F /  2.4 °C 36 °F /  2.2 °C 30.4in /  1028.0hPa Calm   0.9mph /  1.4km/h 98% 0in /  0.0mm
16:24 36.3 °F /  2.4 °C 36 °F /  2.2 °C 30.4in /  1028.0hPa Calm   0.9mph /  1.4km/h 98% 0in /  0.0mm
16:29 36.1 °F /  2.3 °C 35.8 °F /  2.1 °C 30.4in /  1028.0hPa Calm     98% 0in /  0.0mm
16:34 36.1 °F /  2.3 °C 35.8 °F /  2.1 °C 30.4in /  1028.0hPa Calm     98% 0in /  0.0mm
16:39 36.1 °F /  2.3 °C 35.8 °F /  2.1 °C 30.4in /  1028.0hPa Calm   3.6mph /  5.8km/h 98% 0in /  0.0mm
16:44 36.1 °F /  2.3 °C 35.4 °F /  1.9 °C 30.4in /  1028.0hPa ESE 2.2mph /  3.5km/h 4mph /  6.4km/h 98% 0in /  0.0mm
16:49 36.1 °F /  2.3 °C 35.4 °F /  1.9 °C 30.4in /  1028.0hPa Calm   4mph /  6.4km/h 98% 0in /  0.0mm
16:54 36.1 °F /  2.3 °C 35.4 °F /  1.9 °C 30.4in /  1028.0hPa Calm   3.6mph /  5.8km/h 98% 0in /  0.0mm
16:59 36.1 °F /  2.3 °C 35.4 °F /  1.9 °C 30.4in /  1028.0hPa South 2.7mph /  4.3km/h 2.7mph /  4.3km/h 98% 0in /  0.0mm
17:04 36.1 °F /  2.3 °C 35.4 °F /  1.9 °C 30.4in /  1028.0hPa Calm   2.7mph /  4.3km/h 98% 0in /  0.0mm
17:09 36 °F /  2.2 °C 35.4 °F /  1.9 °C 30.4in /  1028.0hPa Calm   3.1mph /  5.0km/h 98% 0in /  0.0mm
17:14 35.8 °F /  2.1 °C 35.2 °F /  1.8 °C 30.4in /  1028.0hPa Calm   3.1mph /  5.0km/h 98% 0in /  0.0mm
17:19 35.8 °F /  2.1 °C 35.2 °F /  1.8 °C 30.4in /  1028.0hPa Calm     98% 0in /  0.0mm
17:24 35.8 °F /  2.1 °C 35.2 °F /  1.8 °C 30.4in /  1028.0hPa Calm     98% 0in /  0.0mm
17:29 35.4 °F /  1.9 °C 35.1 °F /  1.7 °C 30.4in /  1028.0hPa Calm     98% 0in /  0.0mm
17:34 35.4 °F /  1.9 °C 35.1 °F /  1.7 °C 30.4in /  1028.0hPa Calm   2.5mph /  4.0km/h 98% 0in /  0.0mm
17:39 35.4 °F /  1.9 °C 34.9 °F /  1.6 °C 30.4in /  1028.0hPa Calm   2.5mph /  4.0km/h 98% 0in /  0.0mm
17:44 35.4 °F /  1.9 °C 34.9 °F /  1.6 °C 30.4in /  1028.0hPa Calm   2.7mph /  4.3km/h 98% 0in /  0.0mm
17:49 35.2 °F /  1.8 °C 34.7 °F /  1.5 °C 30.4in /  1028.0hPa Calm   2.7mph /  4.3km/h 98% 0in /  0.0mm
17:54 35.2 °F /  1.8 °C 34.7 °F /  1.5 °C 30.4in /  1029.0hPa Calm   1.6mph /  2.6km/h 98% 0in /  0.0mm
17:59 35.1 °F /  1.7 °C 34.5 °F /  1.4 °C 30.4in /  1029.0hPa Calm   1.6mph /  2.6km/h 98% 0in /  0.0mm
18:04 35.1 °F /  1.7 °C 34.5 °F /  1.4 °C 30.4in /  1029.0hPa Calm   2.7mph /  4.3km/h 98% 0in /  0.0mm
18:09 35.1 °F /  1.7 °C 34.5 °F /  1.4 °C 30.4in /  1029.0hPa Calm   2.7mph /  4.3km/h 98% 0in /  0.0mm
18:14 34.9 °F /  1.6 °C 34.3 °F /  1.3 °C 30.4in /  1029.0hPa South 3.6mph /  5.8km/h 3.6mph /  5.8km/h 98% 0in /  0.0mm
18:19 34.9 °F /  1.6 °C 34.3 °F /  1.3 °C 30.4in /  1029.0hPa South 2.9mph /  4.7km/h 4.7mph /  7.6km/h 98% 0in /  0.0mm
18:24 34.9 °F /  1.6 °C 34.3 °F /  1.3 °C 30.4in /  1029.0hPa SSE 2.5mph /  4.0km/h 5.6mph /  9.0km/h 98% 0in /  0.0mm
18:29 34.5 °F /  1.4 °C 34.2 °F /  1.2 °C 30.4in /  1029.0hPa SSE 1.1mph /  1.8km/h 5.6mph /  9.0km/h 98% 0in /  0.0mm
18:34 34.5 °F /  1.4 °C 34 °F /  1.1 °C 30.4in /  1029.0hPa SSE 4.9mph /  7.9km/h 4.9mph /  7.9km/h 98% 0in /  0.0mm
18:39 34.5 °F /  1.4 °C 34 °F /  1.1 °C 30.4in /  1029.0hPa Calm   5.4mph /  8.7km/h 98% 0in /  0.0mm
18:44 34.3 °F /  1.3 °C 33.8 °F /  1.0 °C 30.4in /  1029.0hPa Calm   5.4mph /  8.7km/h 98% 0in /  0.0mm
18:49 34.3 °F /  1.3 °C 33.8 °F /  1.0 °C 30.4in /  1029.0hPa South 2.7mph /  4.3km/h 5.6mph /  9.0km/h 98% 0in /  0.0mm
18:54 34.2 °F /  1.2 °C 33.6 °F /  0.9 °C 30.4in /  1029.0hPa South 3.8mph /  6.1km/h 5.6mph /  9.0km/h 98% 0in /  0.0mm
18:59 34 °F /  1.1 °C 33.4 °F /  0.8 °C 30.4in /  1029.0hPa South 4.9mph /  7.9km/h 4.9mph /  7.9km/h 98% 0in /  0.0mm
19:04 33.8 °F /  1.0 °C 33.3 °F /  0.7 °C 30.4in /  1029.0hPa SSE 3.8mph /  6.1km/h 4.9mph /  7.9km/h 98% 0in /  0.0mm
19:09 33.8 °F /  1.0 °C 33.3 °F /  0.7 °C 30.4in /  1029.0hPa SSW 2.2mph /  3.5km/h 4.3mph /  6.9km/h 98% 0in /  0.0mm
19:14 33.6 °F /  0.9 °C 33.1 °F /  0.6 °C 30.4in /  1029.0hPa Calm   4.3mph /  6.9km/h 98% 0in /  0.0mm
19:19 33.6 °F /  0.9 °C 33.1 °F /  0.6 °C 30.4in /  1029.0hPa Calm   4mph /  6.4km/h 98% 0in /  0.0mm
19:24 33.4 °F /  0.8 °C 32.9 °F /  0.5 °C 30.4in /  1029.0hPa SSE 1.1mph /  1.8km/h 4mph /  6.4km/h 98% 0in /  0.0mm
19:29 33.3 °F /  0.7 °C 32.7 °F /  0.4 °C 30.4in /  1029.0hPa SSE 2.9mph /  4.7km/h 4.3mph /  6.9km/h 98% 0in /  0.0mm
19:34 33.3 °F /  0.7 °C 32.7 °F /  0.4 °C 30.4in /  1029.0hPa SSE 3.4mph /  5.5km/h 4.9mph /  7.9km/h 98% 0in /  0.0mm
19:39 33.3 °F /  0.7 °C 32.7 °F /  0.4 °C 30.4in /  1029.0hPa South 2mph /  3.2km/h 4.9mph /  7.9km/h 98% 0in /  0.0mm
19:44 33.3 °F /  0.7 °C 32.7 °F /  0.4 °C 30.4in /  1029.0hPa Calm   5.4mph /  8.7km/h 98% 0in /  0.0mm
19:49 33.1 °F /  0.6 °C 32.5 °F /  0.3 °C 30.4in /  1029.0hPa Calm   5.4mph /  8.7km/h 98% 0in /  0.0mm
19:54 33.1 °F /  0.6 °C 32.5 °F /  0.3 °C 30.4in /  1029.0hPa SSW 2.5mph /  4.0km/h 3.1mph /  5.0km/h 98% 0in /  0.0mm
19:59 33.1 °F /  0.6 °C 32.5 °F /  0.3 °C 30.4in /  1029.0hPa South 2.5mph /  4.0km/h 3.8mph /  6.1km/h 98% 0in /  0.0mm
20:04 32.9 °F /  0.5 °C 32.4 °F /  0.2 °C 30.4in /  1029.0hPa SSW 2.5mph /  4.0km/h 3.8mph /  6.1km/h 98% 0in /  0.0mm
20:09 32.9 °F /  0.5 °C 32.4 °F /  0.2 °C 30.4in /  1029.0hPa Calm   3.6mph /  5.8km/h 98% 0in /  0.0mm
20:14 32.7 °F /  0.4 °C 32.2 °F /  0.1 °C 30.4in /  1029.0hPa Calm   3.1mph /  5.0km/h 98% 0in /  0.0mm
20:19 32.7 °F /  0.4 °C 32.2 °F /  0.1 °C 30.4in /  1029.0hPa Calm   2.9mph /  4.7km/h 98% 0in /  0.0mm
20:24 32.7 °F /  0.4 °C 32.2 °F /  0.1 °C 30.4in /  1029.0hPa Calm   2.9mph /  4.7km/h 98% 0in /  0.0mm
20:29 32.7 °F /  0.4 °C 32.2 °F /  0.1 °C 30.4in /  1029.0hPa Calm   2mph /  3.2km/h 98% 0in /  0.0mm
20:34 32.7 °F /  0.4 °C 32.2 °F /  0.1 °C 30.4in /  1029.0hPa Calm   2mph /  3.2km/h 98% 0in /  0.0mm
20:39 32.7 °F /  0.4 °C 32.2 °F /  0.1 °C 30.4in /  1028.0hPa Calm   3.1mph /  5.0km/h 98% 0in /  0.0mm
20:44 32.5 °F /  0.3 °C 32 °F /  0.0 °C 30.4in /  1028.0hPa Calm   3.1mph /  5.0km/h 98% 0in /  0.0mm
20:49 32.5 °F /  0.3 °C 32 °F /  0.0 °C 30.4in /  1028.0hPa South 2.2mph /  3.5km/h 2.2mph /  3.5km/h 98% 0in /  0.0mm
20:54 32.5 °F /  0.3 °C 32 °F /  0.0 °C 30.4in /  1029.0hPa SSE 2.5mph /  4.0km/h 3.1mph /  5.0km/h 98% 0in /  0.0mm
20:59 32.5 °F /  0.3 °C 32 °F /  0.0 °C 30.4in /  1029.0hPa SSE 2.9mph /  4.7km/h 3.6mph /  5.8km/h 98% 0in /  0.0mm
21:04 32.5 °F /  0.3 °C 32 °F /  0.0 °C 30.4in /  1029.0hPa SSE 4.9mph /  7.9km/h 4.9mph /  7.9km/h 98% 0in /  0.0mm
21:09 32.5 °F /  0.3 °C 32 °F /  0.0 °C 30.4in /  1029.0hPa SSW 3.6mph /  5.8km/h 4.9mph /  7.9km/h 98% 0in /  0.0mm
21:14 32.5 °F /  0.3 °C 32 °F /  0.0 °C 30.4in /  1029.0hPa SSW 3.6mph /  5.8km/h 4.3mph /  6.9km/h 98% 0in /  0.0mm
21:19 32.5 °F /  0.3 °C 32 °F /  0.0 °C 30.4in /  1029.0hPa SSW 1.1mph /  1.8km/h 4.3mph /  6.9km/h 98% 0in /  0.0mm
21:24 32.5 °F /  0.3 °C 32 °F /  0.0 °C 30.4in /  1028.0hPa Calm   6.5mph /  10.5km/h 98% 0in /  0.0mm
21:29 32.5 °F /  0.3 °C 32 °F /  0.0 °C 30.4in /  1028.0hPa Calm   6.5mph /  10.5km/h 98% 0in /  0.0mm
21:34 32.5 °F /  0.3 °C 32 °F /  0.0 °C 30.4in /  1028.0hPa Calm   4.3mph /  6.9km/h 98% 0in /  0.0mm
21:39 32.5 °F /  0.3 °C 32 °F /  0.0 °C 30.4in /  1029.0hPa South 2.9mph /  4.7km/h 3.4mph /  5.5km/h 98% 0in /  0.0mm
21:44 32.5 °F /  0.3 °C 32 °F /  0.0 °C 30.4in /  1029.0hPa Calm   3.4mph /  5.5km/h 98% 0in /  0.0mm
21:49 32.5 °F /  0.3 °C 32 °F /  0.0 °C 30.4in /  1029.0hPa Calm   3.1mph /  5.0km/h 98% 0in /  0.0mm
21:54 32.5 °F /  0.3 °C 32 °F /  0.0 °C 30.4in /  1029.0hPa Calm   4mph /  6.4km/h 98% 0in /  0.0mm
22:00 32.5 °F /  0.3 °C 32 °F /  0.0 °C 30.4in /  1029.0hPa WSW 2mph /  3.2km/h 4mph /  6.4km/h 98% 0in /  0.0mm
22:04 32.5 °F /  0.3 °C 32 °F /  0.0 °C 30.4in /  1029.0hPa South 2.5mph /  4.0km/h 3.1mph /  5.0km/h 98% 0in /  0.0mm
22:10 32.5 °F /  0.3 °C 32 °F /  0.0 °C 30.4in /  1029.0hPa Calm   3.1mph /  5.0km/h 98% 0in /  0.0mm
22:15 32.5 °F /  0.3 °C 32 °F /  0.0 °C 30.4in /  1029.0hPa Calm   2mph /  3.2km/h 98% 0in /  0.0mm
22:20 32.5 °F /  0.3 °C 32 °F /  0.0 °C 30.4in /  1029.0hPa Calm   4mph /  6.4km/h 98% 0in /  0.0mm
22:24 32.5 °F /  0.3 °C 32 °F /  0.0 °C 30.4in /  1029.0hPa Calm   4mph /  6.4km/h 98% 0in /  0.0mm
22:30 32.5 °F /  0.3 °C 32 °F /  0.0 °C 30.4in /  1029.0hPa Calm     98% 0in /  0.0mm
22:35 32.5 °F /  0.3 °C 32 °F /  0.0 °C 30.4in /  1029.0hPa SE 3.4mph /  5.5km/h 3.8mph /  6.1km/h 98% 0in /  0.0mm
22:40 32.5 °F /  0.3 °C 32 °F /  0.0 °C 30.4in /  1029.0hPa SE 3.4mph /  5.5km/h 5.6mph /  9.0km/h 98% 0in /  0.0mm
22:45 32.4 °F /  0.2 °C 31.8 °F /  -0.1 °C 30.4in /  1029.0hPa SE 2.7mph /  4.3km/h 5.6mph /  9.0km/h 98% 0in /  0.0mm
22:50 32.4 °F /  0.2 °C 31.8 °F /  -0.1 °C 30.4in /  1029.0hPa ESE 3.1mph /  5.0km/h 4.3mph /  6.9km/h 98% 0in /  0.0mm
22:55 32.4 °F /  0.2 °C 31.8 °F /  -0.1 °C 30.4in /  1028.0hPa Calm   5.4mph /  8.7km/h 98% 0in /  0.0mm
23:00 32.4 °F /  0.2 °C 31.8 °F /  -0.1 °C 30.4in /  1028.0hPa SSE 3.8mph /  6.1km/h 5.4mph /  8.7km/h 98% 0in /  0.0mm
23:05 32.2 °F /  0.1 °C 31.6 °F /  -0.2 °C 30.4in /  1028.0hPa SSE 0.9mph /  1.4km/h 4.7mph /  7.6km/h 98% 0in /  0.0mm
23:10 32.2 °F /  0.1 °C 31.6 °F /  -0.2 °C 30.4in /  1029.0hPa SSE 3.4mph /  5.5km/h 6.3mph /  10.1km/h 98% 0in /  0.0mm
23:15 32 °F /  0.0 °C 31.5 °F /  -0.3 °C 30.4in /  1029.0hPa SE 2.9mph /  4.7km/h 6.3mph /  10.1km/h 98% 0in /  0.0mm
23:20 32 °F /  0.0 °C 31.5 °F /  -0.3 °C 30.4in /  1029.0hPa SSE 2.5mph /  4.0km/h 5.8mph /  9.3km/h 98% 0in /  0.0mm
23:25 32 °F /  0.0 °C 31.5 °F /  -0.3 °C 30.4in /  1028.0hPa Calm   4.5mph /  7.2km/h 98% 0in /  0.0mm
23:30 32 °F /  0.0 °C 31.5 °F /  -0.3 °C 30.4in /  1028.0hPa Calm   3.8mph /  6.1km/h 98% 0in /  0.0mm
23:35 32 °F /  0.0 °C 31.5 °F /  -0.3 °C 30.4in /  1028.0hPa SSE 2.9mph /  4.7km/h 4.7mph /  7.6km/h 98% 0in /  0.0mm
23:40 32 °F /  0.0 °C 31.5 °F /  -0.3 °C 30.4in /  1029.0hPa SSW 2.9mph /  4.7km/h 4.9mph /  7.9km/h 98% 0in /  0.0mm
23:45 32 °F /  0.0 °C 31.5 °F /  -0.3 °C 30.4in /  1029.0hPa South 2.5mph /  4.0km/h 4.9mph /  7.9km/h 98% 0in /  0.0mm
23:50 32 °F /  0.0 °C 31.5 °F /  -0.3 °C 30.4in /  1029.0hPa Calm   4.9mph /  7.9km/h 98% 0in /  0.0mm
23:55 32 °F /  0.0 °C 31.5 °F /  -0.3 °C 30.4in /  1029.0hPa Calm   4.7mph /  7.6km/h 98% 0in /  0.0mm
Données Historique de Météo Turbie

Mise a jour : 25/05/2018 06:52:16
Généré par Cumulus 1.9.4 (1099)